sensor_id;sensor_type;location;lat;lon;timestamp;temperature;humidity
5334;DHT22;2689;50.954;7.116;2022-07-10T00:02:05;15.10;94.00
5334;DHT22;2689;50.954;7.116;2022-07-10T00:04:32;15.10;94.10
5334;DHT22;2689;50.954;7.116;2022-07-10T00:06:59;15.00;94.30
5334;DHT22;2689;50.954;7.116;2022-07-10T00:09:28;15.00;94.60
5334;DHT22;2689;50.954;7.116;2022-07-10T00:11:55;14.90;94.90
5334;DHT22;2689;50.954;7.116;2022-07-10T00:14:22;15.00;95.00
5334;DHT22;2689;50.954;7.116;2022-07-10T00:16:49;14.90;95.10
5334;DHT22;2689;50.954;7.116;2022-07-10T00:19:16;14.90;95.40
5334;DHT22;2689;50.954;7.116;2022-07-10T00:21:43;14.90;95.60
5334;DHT22;2689;50.954;7.116;2022-07-10T00:24:09;14.80;95.70
5334;DHT22;2689;50.954;7.116;2022-07-10T00:26:37;14.80;95.90
5334;DHT22;2689;50.954;7.116;2022-07-10T00:29:04;14.80;96.10
5334;DHT22;2689;50.954;7.116;2022-07-10T00:31:31;14.80;96.20
5334;DHT22;2689;50.954;7.116;2022-07-10T00:33:58;14.80;96.30
5334;DHT22;2689;50.954;7.116;2022-07-10T00:36:24;14.70;96.60
5334;DHT22;2689;50.954;7.116;2022-07-10T00:38:51;14.70;96.80
5334;DHT22;2689;50.954;7.116;2022-07-10T00:41:18;14.70;96.90
5334;DHT22;2689;50.954;7.116;2022-07-10T00:43:53;14.70;97.10
5334;DHT22;2689;50.954;7.116;2022-07-10T00:46:20;14.60;97.60
5334;DHT22;2689;50.954;7.116;2022-07-10T00:48:47;14.60;97.40
5334;DHT22;2689;50.954;7.116;2022-07-10T00:51:14;14.50;97.80
5334;DHT22;2689;50.954;7.116;2022-07-10T00:53:41;14.50;97.90
5334;DHT22;2689;50.954;7.116;2022-07-10T00:56:09;14.50;98.20
5334;DHT22;2689;50.954;7.116;2022-07-10T00:58:37;14.40;98.30
5334;DHT22;2689;50.954;7.116;2022-07-10T01:01:06;14.40;98.40
5334;DHT22;2689;50.954;7.116;2022-07-10T01:03:33;14.40;98.70
5334;DHT22;2689;50.954;7.116;2022-07-10T01:05:59;14.40;98.80
5334;DHT22;2689;50.954;7.116;2022-07-10T01:08:27;14.30;98.90
5334;DHT22;2689;50.954;7.116;2022-07-10T01:10:54;14.30;99.00
5334;DHT22;2689;50.954;7.116;2022-07-10T01:13:21;14.30;99.10
5334;DHT22;2689;50.954;7.116;2022-07-10T01:15:48;14.30;99.20
5334;DHT22;2689;50.954;7.116;2022-07-10T01:18:16;14.30;99.10
5334;DHT22;2689;50.954;7.116;2022-07-10T01:20:43;14.20;99.30
5334;DHT22;2689;50.954;7.116;2022-07-10T01:23:11;14.20;99.40
5334;DHT22;2689;50.954;7.116;2022-07-10T01:25:38;14.20;99.60
5334;DHT22;2689;50.954;7.116;2022-07-10T01:28:05;14.10;99.70
5334;DHT22;2689;50.954;7.116;2022-07-10T01:30:32;14.20;99.60
5334;DHT22;2689;50.954;7.116;2022-07-10T01:32:58;14.10;99.70
5334;DHT22;2689;50.954;7.116;2022-07-10T01:35:25;14.10;99.90
5334;DHT22;2689;50.954;7.116;2022-07-10T01:37:52;14.10;99.90
5334;DHT22;2689;50.954;7.116;2022-07-10T01:40:20;14.10;99.80
5334;DHT22;2689;50.954;7.116;2022-07-10T01:42:46;14.10;99.90
5334;DHT22;2689;50.954;7.116;2022-07-10T01:45:16;14.00;99.90
5334;DHT22;2689;50.954;7.116;2022-07-10T01:47:43;14.00;99.90
5334;DHT22;2689;50.954;7.116;2022-07-10T01:50:10;14.00;99.90
5334;DHT22;2689;50.954;7.116;2022-07-10T01:52:37;14.00;99.90
5334;DHT22;2689;50.954;7.116;2022-07-10T01:55:05;13.90;99.90
5334;DHT22;2689;50.954;7.116;2022-07-10T01:57:34;13.90;99.90
5334;DHT22;2689;50.954;7.116;2022-07-10T02:00:00;13.80;99.90
5334;DHT22;2689;50.954;7.116;2022-07-10T02:02:27;13.90;99.90
5334;DHT22;2689;50.954;7.116;2022-07-10T02:04:54;13.80;99.90
5334;DHT22;2689;50.954;7.116;2022-07-10T02:07:19;13.80;99.90
5334;DHT22;2689;50.954;7.116;2022-07-10T02:09:47;13.80;99.90
5334;DHT22;2689;50.954;7.116;2022-07-10T02:12:14;13.80;99.90
5334;DHT22;2689;50.954;7.116;2022-07-10T02:14:43;13.90;99.90
5334;DHT22;2689;50.954;7.116;2022-07-10T02:17:09;13.90;99.90
5334;DHT22;2689;50.954;7.116;2022-07-10T02:19:37;13.90;99.90
5334;DHT22;2689;50.954;7.116;2022-07-10T02:22:04;13.90;99.90
5334;DHT22;2689;50.954;7.116;2022-07-10T02:24:30;13.90;99.90
5334;DHT22;2689;50.954;7.116;2022-07-10T02:26:57;14.00;99.90
5334;DHT22;2689;50.954;7.116;2022-07-10T02:29:24;14.00;99.90
5334;DHT22;2689;50.954;7.116;2022-07-10T02:31:52;14.00;99.90
5334;DHT22;2689;50.954;7.116;2022-07-10T02:34:19;14.00;99.90
5334;DHT22;2689;50.954;7.116;2022-07-10T02:36:46;14.00;99.90
5334;DHT22;2689;50.954;7.116;2022-07-10T02:39:12;14.00;99.90
5334;DHT22;2689;50.954;7.116;2022-07-10T02:41:39;14.00;99.90
5334;DHT22;2689;50.954;7.116;2022-07-10T02:44:06;14.10;99.90
5334;DHT22;2689;50.954;7.116;2022-07-10T02:46:33;14.10;99.90
5334;DHT22;2689;50.954;7.116;2022-07-10T02:49:01;14.10;99.90
5334;DHT22;2689;50.954;7.116;2022-07-10T02:51:29;14.10;99.90
5334;DHT22;2689;50.954;7.116;2022-07-10T02:53:56;14.00;99.90
5334;DHT22;2689;50.954;7.116;2022-07-10T02:56:23;14.00;99.90
5334;DHT22;2689;50.954;7.116;2022-07-10T02:58:50;14.00;99.90
5334;DHT22;2689;50.954;7.116;2022-07-10T03:01:17;14.00;99.90
5334;DHT22;2689;50.954;7.116;2022-07-10T03:03:44;14.00;99.90
5334;DHT22;2689;50.954;7.116;2022-07-10T03:06:12;14.00;99.90
5334;DHT22;2689;50.954;7.116;2022-07-10T03:08:39;14.00;99.90
5334;DHT22;2689;50.954;7.116;2022-07-10T03:11:07;14.00;99.90
5334;DHT22;2689;50.954;7.116;2022-07-10T03:13:34;14.00;99.90
5334;DHT22;2689;50.954;7.116;2022-07-10T03:16:00;14.10;99.90
5334;DHT22;2689;50.954;7.116;2022-07-10T03:18:28;14.10;99.90
5334;DHT22;2689;50.954;7.116;2022-07-10T03:20:55;14.20;99.90
5334;DHT22;2689;50.954;7.116;2022-07-10T03:23:23;14.20;99.90
5334;DHT22;2689;50.954;7.116;2022-07-10T03:25:49;14.30;99.90
5334;DHT22;2689;50.954;7.116;2022-07-10T03:28:16;14.30;99.90
5334;DHT22;2689;50.954;7.116;2022-07-10T03:30:43;14.30;99.90
5334;DHT22;2689;50.954;7.116;2022-07-10T03:33:09;14.30;99.90
5334;DHT22;2689;50.954;7.116;2022-07-10T03:35:36;14.30;99.90
5334;DHT22;2689;50.954;7.116;2022-07-10T03:38:03;14.40;99.90
5334;DHT22;2689;50.954;7.116;2022-07-10T03:40:31;14.40;99.90
5334;DHT22;2689;50.954;7.116;2022-07-10T03:42:59;14.40;99.90
5334;DHT22;2689;50.954;7.116;2022-07-10T03:45:25;14.40;99.90
5334;DHT22;2689;50.954;7.116;2022-07-10T03:47:52;14.40;99.90
5334;DHT22;2689;50.954;7.116;2022-07-10T03:50:19;14.40;99.90
5334;DHT22;2689;50.954;7.116;2022-07-10T03:52:46;14.40;99.90
5334;DHT22;2689;50.954;7.116;2022-07-10T03:55:13;14.40;99.90
5334;DHT22;2689;50.954;7.116;2022-07-10T03:57:41;14.30;99.90
5334;DHT22;2689;50.954;7.116;2022-07-10T04:00:23;14.30;99.90
5334;DHT22;2689;50.954;7.116;2022-07-10T04:02:54;14.40;99.90
5334;DHT22;2689;50.954;7.116;2022-07-10T04:05:22;14.40;99.90
5334;DHT22;2689;50.954;7.116;2022-07-10T04:07:48;14.40;99.90
5334;DHT22;2689;50.954;7.116;2022-07-10T04:10:15;14.40;99.90
5334;DHT22;2689;50.954;7.116;2022-07-10T04:12:44;14.40;99.90
5334;DHT22;2689;50.954;7.116;2022-07-10T04:15:11;14.40;99.90
5334;DHT22;2689;50.954;7.116;2022-07-10T04:17:38;14.30;99.90
5334;DHT22;2689;50.954;7.116;2022-07-10T04:20:05;14.40;99.90
5334;DHT22;2689;50.954;7.116;2022-07-10T04:22:32;14.40;99.90
5334;DHT22;2689;50.954;7.116;2022-07-10T04:24:59;14.40;99.90
5334;DHT22;2689;50.954;7.116;2022-07-10T04:27:26;14.40;99.90
5334;DHT22;2689;50.954;7.116;2022-07-10T04:29:54;14.40;99.90
5334;DHT22;2689;50.954;7.116;2022-07-10T04:32:21;14.40;99.90
5334;DHT22;2689;50.954;7.116;2022-07-10T04:34:48;14.30;99.90
5334;DHT22;2689;50.954;7.116;2022-07-10T04:37:15;14.40;99.90
5334;DHT22;2689;50.954;7.116;2022-07-10T04:39:42;14.40;99.90
5334;DHT22;2689;50.954;7.116;2022-07-10T04:42:09;14.30;99.90
5334;DHT22;2689;50.954;7.116;2022-07-10T04:44:36;14.30;99.90
5334;DHT22;2689;50.954;7.116;2022-07-10T04:47:05;14.20;99.90
5334;DHT22;2689;50.954;7.116;2022-07-10T04:49:32;14.30;99.90
5334;DHT22;2689;50.954;7.116;2022-07-10T04:51:59;14.30;99.90
5334;DHT22;2689;50.954;7.116;2022-07-10T04:54:26;14.30;99.90
5334;DHT22;2689;50.954;7.116;2022-07-10T04:56:53;14.30;99.90
5334;DHT22;2689;50.954;7.116;2022-07-10T04:59:19;14.30;99.90
5334;DHT22;2689;50.954;7.116;2022-07-10T05:01:46;14.30;99.90
5334;DHT22;2689;50.954;7.116;2022-07-10T05:04:14;14.30;99.90
5334;DHT22;2689;50.954;7.116;2022-07-10T05:06:41;14.40;99.90
5334;DHT22;2689;50.954;7.116;2022-07-10T05:09:08;14.50;99.90
5334;DHT22;2689;50.954;7.116;2022-07-10T05:11:34;14.60;99.90
5334;DHT22;2689;50.954;7.116;2022-07-10T05:14:01;14.70;99.90
5334;DHT22;2689;50.954;7.116;2022-07-10T05:16:28;14.80;99.90
5334;DHT22;2689;50.954;7.116;2022-07-10T05:18:54;14.80;99.90
5334;DHT22;2689;50.954;7.116;2022-07-10T05:21:23;14.90;99.90
5334;DHT22;2689;50.954;7.116;2022-07-10T05:23:50;15.00;99.90
5334;DHT22;2689;50.954;7.116;2022-07-10T05:26:17;15.00;99.90
5334;DHT22;2689;50.954;7.116;2022-07-10T05:28:44;15.00;99.90
5334;DHT22;2689;50.954;7.116;2022-07-10T05:31:10;14.90;99.90
5334;DHT22;2689;50.954;7.116;2022-07-10T05:33:37;14.90;99.90
5334;DHT22;2689;50.954;7.116;2022-07-10T05:36:06;14.90;99.90
5334;DHT22;2689;50.954;7.116;2022-07-10T05:38:34;14.80;99.90
5334;DHT22;2689;50.954;7.116;2022-07-10T05:41:02;14.90;99.90
5334;DHT22;2689;50.954;7.116;2022-07-10T05:43:28;14.90;99.90
5334;DHT22;2689;50.954;7.116;2022-07-10T05:45:55;15.00;99.90
5334;DHT22;2689;50.954;7.116;2022-07-10T05:48:22;15.10;99.90
5334;DHT22;2689;50.954;7.116;2022-07-10T05:50:49;15.10;99.90
5334;DHT22;2689;50.954;7.116;2022-07-10T05:53:16;15.10;99.90
5334;DHT22;2689;50.954;7.116;2022-07-10T05:55:46;15.20;99.90
5334;DHT22;2689;50.954;7.116;2022-07-10T05:58:13;15.30;99.90
5334;DHT22;2689;50.954;7.116;2022-07-10T06:00:40;15.30;99.90
5334;DHT22;2689;50.954;7.116;2022-07-10T06:03:08;15.30;99.90
5334;DHT22;2689;50.954;7.116;2022-07-10T06:05:35;15.30;99.90
5334;DHT22;2689;50.954;7.116;2022-07-10T06:08:02;15.50;99.90
5334;DHT22;2689;50.954;7.116;2022-07-10T06:10:29;15.60;99.90
5334;DHT22;2689;50.954;7.116;2022-07-10T06:12:57;15.60;99.90
5334;DHT22;2689;50.954;7.116;2022-07-10T06:15:23;15.80;99.90
5334;DHT22;2689;50.954;7.116;2022-07-10T06:17:50;16.00;98.80
5334;DHT22;2689;50.954;7.116;2022-07-10T06:20:17;16.20;98.70
5334;DHT22;2689;50.954;7.116;2022-07-10T06:22:44;16.30;98.10
5334;DHT22;2689;50.954;7.116;2022-07-10T06:25:10;16.50;97.80
5334;DHT22;2689;50.954;7.116;2022-07-10T06:27:38;16.80;97.10
5334;DHT22;2689;50.954;7.116;2022-07-10T06:30:07;17.00;94.70
5334;DHT22;2689;50.954;7.116;2022-07-10T06:32:34;17.10;93.80
5334;DHT22;2689;50.954;7.116;2022-07-10T06:35:00;17.20;93.80
5334;DHT22;2689;50.954;7.116;2022-07-10T06:37:28;17.30;93.40
5334;DHT22;2689;50.954;7.116;2022-07-10T06:39:54;17.40;93.40
5334;DHT22;2689;50.954;7.116;2022-07-10T06:42:21;17.60;92.50
5334;DHT22;2689;50.954;7.116;2022-07-10T06:44:48;17.80;91.80
5334;DHT22;2689;50.954;7.116;2022-07-10T06:47:17;17.80;91.90
5334;DHT22;2689;50.954;7.116;2022-07-10T06:50:03;18.00;91.10
5334;DHT22;2689;50.954;7.116;2022-07-10T06:52:31;17.80;91.20
5334;DHT22;2689;50.954;7.116;2022-07-10T06:54:59;17.80;90.90
5334;DHT22;2689;50.954;7.116;2022-07-10T06:57:26;17.90;90.70
5334;DHT22;2689;50.954;7.116;2022-07-10T06:59:52;18.00;90.40
5334;DHT22;2689;50.954;7.116;2022-07-10T07:02:21;18.20;90.00
5334;DHT22;2689;50.954;7.116;2022-07-10T07:04:47;18.30;89.20
5334;DHT22;2689;50.954;7.116;2022-07-10T07:07:15;18.20;87.80
5334;DHT22;2689;50.954;7.116;2022-07-10T07:09:41;18.00;88.90
5334;DHT22;2689;50.954;7.116;2022-07-10T07:12:09;17.90;90.10
5334;DHT22;2689;50.954;7.116;2022-07-10T07:14:36;17.80;90.30
5334;DHT22;2689;50.954;7.116;2022-07-10T07:17:04;17.80;90.20
5334;DHT22;2689;50.954;7.116;2022-07-10T07:19:35;17.80;90.40
5334;DHT22;2689;50.954;7.116;2022-07-10T07:22:20;18.00;90.50
5334;DHT22;2689;50.954;7.116;2022-07-10T07:25:06;18.40;90.40
5334;DHT22;2689;50.954;7.116;2022-07-10T07:27:34;18.70;88.50
5334;DHT22;2689;50.954;7.116;2022-07-10T07:30:03;18.80;88.30
5334;DHT22;2689;50.954;7.116;2022-07-10T07:32:30;18.70;87.90
5334;DHT22;2689;50.954;7.116;2022-07-10T07:34:58;18.60;87.50
5334;DHT22;2689;50.954;7.116;2022-07-10T07:37:35;18.50;88.00
5334;DHT22;2689;50.954;7.116;2022-07-10T07:40:02;18.20;88.00
5334;DHT22;2689;50.954;7.116;2022-07-10T07:42:29;18.20;87.80
5334;DHT22;2689;50.954;7.116;2022-07-10T07:44:55;18.10;88.00
5334;DHT22;2689;50.954;7.116;2022-07-10T07:47:22;18.10;88.90
5334;DHT22;2689;50.954;7.116;2022-07-10T07:49:49;18.00;88.60
5334;DHT22;2689;50.954;7.116;2022-07-10T07:52:17;18.10;88.40
5334;DHT22;2689;50.954;7.116;2022-07-10T07:54:44;18.30;88.30
5334;DHT22;2689;50.954;7.116;2022-07-10T07:57:10;18.40;87.90
5334;DHT22;2689;50.954;7.116;2022-07-10T07:59:37;18.40;86.90
5334;DHT22;2689;50.954;7.116;2022-07-10T08:02:05;18.40;86.60
5334;DHT22;2689;50.954;7.116;2022-07-10T08:04:32;18.60;87.00
5334;DHT22;2689;50.954;7.116;2022-07-10T08:06:59;18.80;85.70
5334;DHT22;2689;50.954;7.116;2022-07-10T08:09:29;18.90;85.30
5334;DHT22;2689;50.954;7.116;2022-07-10T08:11:55;18.90;85.50
5334;DHT22;2689;50.954;7.116;2022-07-10T08:14:22;18.80;86.40
5334;DHT22;2689;50.954;7.116;2022-07-10T08:16:49;18.90;85.60
5334;DHT22;2689;50.954;7.116;2022-07-10T08:19:16;18.70;86.50
5334;DHT22;2689;50.954;7.116;2022-07-10T08:21:43;18.70;86.50
5334;DHT22;2689;50.954;7.116;2022-07-10T08:24:10;18.70;86.50
5334;DHT22;2689;50.954;7.116;2022-07-10T08:26:38;18.80;86.70
5334;DHT22;2689;50.954;7.116;2022-07-10T08:29:04;18.80;86.60
5334;DHT22;2689;50.954;7.116;2022-07-10T08:31:31;18.80;86.50
5334;DHT22;2689;50.954;7.116;2022-07-10T08:33:59;18.70;86.70
5334;DHT22;2689;50.954;7.116;2022-07-10T08:36:26;18.70;87.10
5334;DHT22;2689;50.954;7.116;2022-07-10T08:38:52;18.60;86.90
5334;DHT22;2689;50.954;7.116;2022-07-10T08:41:23;18.50;87.00
5334;DHT22;2689;50.954;7.116;2022-07-10T08:43:52;18.50;87.30
5334;DHT22;2689;50.954;7.116;2022-07-10T08:46:19;18.30;87.50
5334;DHT22;2689;50.954;7.116;2022-07-10T08:48:47;18.20;88.10
5334;DHT22;2689;50.954;7.116;2022-07-10T08:51:20;18.10;89.40
5334;DHT22;2689;50.954;7.116;2022-07-10T08:53:51;18.10;90.00
5334;DHT22;2689;50.954;7.116;2022-07-10T08:56:18;18.10;90.00
5334;DHT22;2689;50.954;7.116;2022-07-10T08:58:45;18.10;89.80
5334;DHT22;2689;50.954;7.116;2022-07-10T09:01:15;18.20;90.00
5334;DHT22;2689;50.954;7.116;2022-07-10T09:03:48;18.10;90.10
5334;DHT22;2689;50.954;7.116;2022-07-10T09:06:15;18.20;90.20
5334;DHT22;2689;50.954;7.116;2022-07-10T09:08:58;18.30;90.70
5334;DHT22;2689;50.954;7.116;2022-07-10T09:11:25;18.60;90.50
5334;DHT22;2689;50.954;7.116;2022-07-10T09:13:56;18.70;89.30
5334;DHT22;2689;50.954;7.116;2022-07-10T09:16:26;18.80;90.00
5334;DHT22;2689;50.954;7.116;2022-07-10T09:18:53;18.90;89.10
5334;DHT22;2689;50.954;7.116;2022-07-10T09:21:20;18.80;89.30
5334;DHT22;2689;50.954;7.116;2022-07-10T09:23:47;18.90;90.00
5334;DHT22;2689;50.954;7.116;2022-07-10T09:26:14;19.20;89.90
5334;DHT22;2689;50.954;7.116;2022-07-10T09:28:42;19.40;89.90
5334;DHT22;2689;50.954;7.116;2022-07-10T09:31:08;19.40;87.90
5334;DHT22;2689;50.954;7.116;2022-07-10T09:33:36;19.30;88.60
5334;DHT22;2689;50.954;7.116;2022-07-10T09:36:05;19.20;89.30
5334;DHT22;2689;50.954;7.116;2022-07-10T09:38:51;19.20;89.50
5334;DHT22;2689;50.954;7.116;2022-07-10T09:41:21;19.00;89.40
5334;DHT22;2689;50.954;7.116;2022-07-10T09:43:49;18.90;90.10
5334;DHT22;2689;50.954;7.116;2022-07-10T09:46:18;18.80;90.40
5334;DHT22;2689;50.954;7.116;2022-07-10T09:48:46;18.70;91.00
5334;DHT22;2689;50.954;7.116;2022-07-10T09:51:13;18.80;91.10
5334;DHT22;2689;50.954;7.116;2022-07-10T09:53:41;18.90;91.00
5334;DHT22;2689;50.954;7.116;2022-07-10T09:56:10;19.00;90.20
5334;DHT22;2689;50.954;7.116;2022-07-10T09:58:38;19.00;90.30
5334;DHT22;2689;50.954;7.116;2022-07-10T10:01:07;18.90;90.40
5334;DHT22;2689;50.954;7.116;2022-07-10T10:03:35;18.80;90.70
5334;DHT22;2689;50.954;7.116;2022-07-10T10:06:09;18.80;90.90
5334;DHT22;2689;50.954;7.116;2022-07-10T10:08:45;18.80;91.10
5334;DHT22;2689;50.954;7.116;2022-07-10T10:11:15;18.60;91.40
5334;DHT22;2689;50.954;7.116;2022-07-10T10:13:43;18.70;91.80
5334;DHT22;2689;50.954;7.116;2022-07-10T10:16:10;18.70;91.90
5334;DHT22;2689;50.954;7.116;2022-07-10T10:18:37;18.60;91.60
5334;DHT22;2689;50.954;7.116;2022-07-10T10:21:27;18.50;91.80
5334;DHT22;2689;50.954;7.116;2022-07-10T10:23:54;18.40;92.00
5334;DHT22;2689;50.954;7.116;2022-07-10T10:26:22;18.40;92.50
5334;DHT22;2689;50.954;7.116;2022-07-10T10:28:52;18.40;92.20
5334;DHT22;2689;50.954;7.116;2022-07-10T10:31:20;18.40;92.50
5334;DHT22;2689;50.954;7.116;2022-07-10T10:33:47;18.30;92.60
5334;DHT22;2689;50.954;7.116;2022-07-10T10:36:48;18.30;92.90
5334;DHT22;2689;50.954;7.116;2022-07-10T10:39:17;18.30;92.70
5334;DHT22;2689;50.954;7.116;2022-07-10T10:41:50;18.20;93.00
5334;DHT22;2689;50.954;7.116;2022-07-10T10:44:27;18.20;93.30
5334;DHT22;2689;50.954;7.116;2022-07-10T10:47:05;18.20;93.60
5334;DHT22;2689;50.954;7.116;2022-07-10T10:49:54;18.20;93.70
5334;DHT22;2689;50.954;7.116;2022-07-10T10:52:25;18.10;94.20
5334;DHT22;2689;50.954;7.116;2022-07-10T10:55:03;18.20;94.70
5334;DHT22;2689;50.954;7.116;2022-07-10T10:57:42;18.30;94.90
5334;DHT22;2689;50.954;7.116;2022-07-10T11:00:28;18.30;94.70
5334;DHT22;2689;50.954;7.116;2022-07-10T11:03:12;18.20;95.40
5334;DHT22;2689;50.954;7.116;2022-07-10T11:05:40;18.10;95.40
5334;DHT22;2689;50.954;7.116;2022-07-10T11:08:12;18.10;95.70
5334;DHT22;2689;50.954;7.116;2022-07-10T11:10:41;18.10;96.00
5334;DHT22;2689;50.954;7.116;2022-07-10T11:13:09;18.20;97.00
5334;DHT22;2689;50.954;7.116;2022-07-10T11:15:38;18.40;95.80
5334;DHT22;2689;50.954;7.116;2022-07-10T11:18:06;18.60;95.00
5334;DHT22;2689;50.954;7.116;2022-07-10T11:20:34;18.60;94.90
5334;DHT22;2689;50.954;7.116;2022-07-10T11:23:25;18.80;95.00
5334;DHT22;2689;50.954;7.116;2022-07-10T11:26:02;18.80;94.50
5334;DHT22;2689;50.954;7.116;2022-07-10T11:28:44;18.80;94.10
5334;DHT22;2689;50.954;7.116;2022-07-10T11:31:13;18.90;94.70
5334;DHT22;2689;50.954;7.116;2022-07-10T11:33:41;19.00;94.90
5334;DHT22;2689;50.954;7.116;2022-07-10T11:36:10;19.00;94.30
5334;DHT22;2689;50.954;7.116;2022-07-10T11:38:40;18.90;94.60
5334;DHT22;2689;50.954;7.116;2022-07-10T11:41:18;19.00;94.70
5334;DHT22;2689;50.954;7.116;2022-07-10T11:43:51;18.90;94.60
5334;DHT22;2689;50.954;7.116;2022-07-10T11:46:18;18.90;95.20
5334;DHT22;2689;50.954;7.116;2022-07-10T11:48:47;18.80;94.90
5334;DHT22;2689;50.954;7.116;2022-07-10T11:51:26;18.70;94.80
5334;DHT22;2689;50.954;7.116;2022-07-10T11:53:56;18.70;94.50
5334;DHT22;2689;50.954;7.116;2022-07-10T11:56:23;18.50;94.90
5334;DHT22;2689;50.954;7.116;2022-07-10T11:58:57;18.30;95.70
5334;DHT22;2689;50.954;7.116;2022-07-10T12:01:25;18.10;96.70
5334;DHT22;2689;50.954;7.116;2022-07-10T12:03:56;18.10;97.50
5334;DHT22;2689;50.954;7.116;2022-07-10T12:06:24;18.10;98.10
5334;DHT22;2689;50.954;7.116;2022-07-10T12:08:51;18.10;98.70
5334;DHT22;2689;50.954;7.116;2022-07-10T12:11:20;18.20;98.00
5334;DHT22;2689;50.954;7.116;2022-07-10T12:13:48;18.30;97.40
5334;DHT22;2689;50.954;7.116;2022-07-10T12:16:16;18.50;97.70
5334;DHT22;2689;50.954;7.116;2022-07-10T12:18:43;18.60;96.70
5334;DHT22;2689;50.954;7.116;2022-07-10T12:21:12;18.70;96.50
5334;DHT22;2689;50.954;7.116;2022-07-10T12:23:39;18.70;96.70
5334;DHT22;2689;50.954;7.116;2022-07-10T12:26:08;18.60;96.80
5334;DHT22;2689;50.954;7.116;2022-07-10T12:28:58;18.50;96.60
5334;DHT22;2689;50.954;7.116;2022-07-10T12:31:26;18.50;97.30
5334;DHT22;2689;50.954;7.116;2022-07-10T12:33:58;18.40;98.50
5334;DHT22;2689;50.954;7.116;2022-07-10T12:36:44;18.40;99.00
5334;DHT22;2689;50.954;7.116;2022-07-10T12:39:11;18.30;99.90
5334;DHT22;2689;50.954;7.116;2022-07-10T12:41:54;18.20;99.90
5334;DHT22;2689;50.954;7.116;2022-07-10T12:44:34;18.10;99.90
5334;DHT22;2689;50.954;7.116;2022-07-10T12:47:02;18.00;99.90
5334;DHT22;2689;50.954;7.116;2022-07-10T12:49:29;17.90;99.90
5334;DHT22;2689;50.954;7.116;2022-07-10T12:51:56;17.80;99.90
5334;DHT22;2689;50.954;7.116;2022-07-10T12:54:36;17.90;99.90
5334;DHT22;2689;50.954;7.116;2022-07-10T12:57:04;17.80;99.90
5334;DHT22;2689;50.954;7.116;2022-07-10T12:59:34;17.70;99.90
5334;DHT22;2689;50.954;7.116;2022-07-10T13:02:17;17.80;99.90
5334;DHT22;2689;50.954;7.116;2022-07-10T13:04:54;17.90;99.90
5334;DHT22;2689;50.954;7.116;2022-07-10T13:07:29;18.10;99.90
5334;DHT22;2689;50.954;7.116;2022-07-10T13:09:56;18.20;99.90
5334;DHT22;2689;50.954;7.116;2022-07-10T13:12:24;18.40;99.90
5334;DHT22;2689;50.954;7.116;2022-07-10T13:14:52;18.60;99.90
5334;DHT22;2689;50.954;7.116;2022-07-10T13:17:19;18.70;99.90
5334;DHT22;2689;50.954;7.116;2022-07-10T13:19:46;18.60;99.90
5334;DHT22;2689;50.954;7.116;2022-07-10T13:22:13;18.60;99.90
5334;DHT22;2689;50.954;7.116;2022-07-10T13:24:39;18.70;99.90
5334;DHT22;2689;50.954;7.116;2022-07-10T13:27:06;18.70;99.90
5334;DHT22;2689;50.954;7.116;2022-07-10T13:29:33;18.70;99.90
5334;DHT22;2689;50.954;7.116;2022-07-10T13:32:01;18.80;99.90
5334;DHT22;2689;50.954;7.116;2022-07-10T13:34:28;18.70;99.90
5334;DHT22;2689;50.954;7.116;2022-07-10T13:36:55;18.60;99.90
5334;DHT22;2689;50.954;7.116;2022-07-10T13:39:22;18.40;99.90
5334;DHT22;2689;50.954;7.116;2022-07-10T13:41:49;18.40;99.90
5334;DHT22;2689;50.954;7.116;2022-07-10T13:44:16;18.40;99.90
5334;DHT22;2689;50.954;7.116;2022-07-10T13:46:43;18.20;99.90
5334;DHT22;2689;50.954;7.116;2022-07-10T13:49:11;18.10;99.90
5334;DHT22;2689;50.954;7.116;2022-07-10T13:51:38;18.20;99.90
5334;DHT22;2689;50.954;7.116;2022-07-10T13:54:05;18.30;99.90
5334;DHT22;2689;50.954;7.116;2022-07-10T13:56:31;18.40;99.90
5334;DHT22;2689;50.954;7.116;2022-07-10T13:58:58;18.50;99.90
5334;DHT22;2689;50.954;7.116;2022-07-10T14:01:25;18.60;99.90
5334;DHT22;2689;50.954;7.116;2022-07-10T14:03:52;18.80;99.90
5334;DHT22;2689;50.954;7.116;2022-07-10T14:06:20;19.00;99.90
5334;DHT22;2689;50.954;7.116;2022-07-10T14:08:46;19.10;99.90
5334;DHT22;2689;50.954;7.116;2022-07-10T14:11:13;19.40;99.90
5334;DHT22;2689;50.954;7.116;2022-07-10T14:13:40;19.80;99.90
5334;DHT22;2689;50.954;7.116;2022-07-10T14:16:07;20.20;99.90
5334;DHT22;2689;50.954;7.116;2022-07-10T14:18:34;20.70;99.90
5334;DHT22;2689;50.954;7.116;2022-07-10T14:21:03;21.30;99.90
5334;DHT22;2689;50.954;7.116;2022-07-10T14:23:31;21.60;98.70
5334;DHT22;2689;50.954;7.116;2022-07-10T14:25:58;21.90;97.10
5334;DHT22;2689;50.954;7.116;2022-07-10T14:28:25;21.80;96.40
5334;DHT22;2689;50.954;7.116;2022-07-10T14:30:52;21.60;96.00
5334;DHT22;2689;50.954;7.116;2022-07-10T14:33:19;21.30;96.00
5334;DHT22;2689;50.954;7.116;2022-07-10T14:35:46;21.10;97.40
5334;DHT22;2689;50.954;7.116;2022-07-10T14:38:13;21.00;97.00
5334;DHT22;2689;50.954;7.116;2022-07-10T14:40:41;21.00;97.30
5334;DHT22;2689;50.954;7.116;2022-07-10T14:43:07;21.20;96.80
5334;DHT22;2689;50.954;7.116;2022-07-10T14:45:34;21.10;96.00
5334;DHT22;2689;50.954;7.116;2022-07-10T14:48:01;21.10;97.20
5334;DHT22;2689;50.954;7.116;2022-07-10T14:50:28;21.20;96.90
5334;DHT22;2689;50.954;7.116;2022-07-10T14:52:55;21.30;96.60
5334;DHT22;2689;50.954;7.116;2022-07-10T14:55:22;21.30;95.60
5334;DHT22;2689;50.954;7.116;2022-07-10T14:57:50;21.20;95.00
5334;DHT22;2689;50.954;7.116;2022-07-10T15:00:16;21.10;94.90
5334;DHT22;2689;50.954;7.116;2022-07-10T15:02:44;20.90;95.40
5334;DHT22;2689;50.954;7.116;2022-07-10T15:05:10;20.90;96.00
5334;DHT22;2689;50.954;7.116;2022-07-10T15:07:37;20.80;96.30
5334;DHT22;2689;50.954;7.116;2022-07-10T15:10:04;20.80;96.00
5334;DHT22;2689;50.954;7.116;2022-07-10T15:12:33;20.80;95.90
5334;DHT22;2689;50.954;7.116;2022-07-10T15:15:04;20.70;95.40
5334;DHT22;2689;50.954;7.116;2022-07-10T15:17:33;20.60;96.50
5334;DHT22;2689;50.954;7.116;2022-07-10T15:19:59;20.50;97.50
5334;DHT22;2689;50.954;7.116;2022-07-10T15:22:26;20.40;97.80
5334;DHT22;2689;50.954;7.116;2022-07-10T15:24:53;20.20;98.40
5334;DHT22;2689;50.954;7.116;2022-07-10T15:27:19;20.10;99.10
5334;DHT22;2689;50.954;7.116;2022-07-10T15:29:46;20.00;99.60
5334;DHT22;2689;50.954;7.116;2022-07-10T15:32:14;20.00;99.90
5334;DHT22;2689;50.954;7.116;2022-07-10T15:34:41;19.90;99.90
5334;DHT22;2689;50.954;7.116;2022-07-10T15:37:08;19.70;99.90
5334;DHT22;2689;50.954;7.116;2022-07-10T15:39:34;19.70;99.90
5334;DHT22;2689;50.954;7.116;2022-07-10T15:42:07;19.70;99.90
5334;DHT22;2689;50.954;7.116;2022-07-10T15:44:34;19.70;99.90
5334;DHT22;2689;50.954;7.116;2022-07-10T15:47:01;19.60;99.90
5334;DHT22;2689;50.954;7.116;2022-07-10T15:49:29;19.60;99.90
5334;DHT22;2689;50.954;7.116;2022-07-10T15:51:56;19.60;99.90
5334;DHT22;2689;50.954;7.116;2022-07-10T15:54:24;19.60;99.90
5334;DHT22;2689;50.954;7.116;2022-07-10T15:56:51;19.60;99.90
5334;DHT22;2689;50.954;7.116;2022-07-10T15:59:18;19.70;99.90
5334;DHT22;2689;50.954;7.116;2022-07-10T16:01:48;19.80;99.90
5334;DHT22;2689;50.954;7.116;2022-07-10T16:04:15;20.00;99.90
5334;DHT22;2689;50.954;7.116;2022-07-10T16:06:44;20.10;99.90
5334;DHT22;2689;50.954;7.116;2022-07-10T16:09:11;20.10;99.90
5334;DHT22;2689;50.954;7.116;2022-07-10T16:11:38;20.20;99.50